createdAt,value
2022-08-19T00:02:00.881Z,8.90
2022-08-19T00:04:37.699Z,9.27
2022-08-19T00:07:09.195Z,8.60
2022-08-19T00:09:37.612Z,8.98
2022-08-19T00:12:06.914Z,8.75
2022-08-19T00:14:35.545Z,9.52
2022-08-19T00:17:04.457Z,9.25
2022-08-19T00:19:33.411Z,9.30
2022-08-19T00:22:03.367Z,8.23
2022-08-19T00:24:33.548Z,7.70
2022-08-19T00:27:24.875Z,7.80
2022-08-19T00:29:52.608Z,8.48
2022-08-19T00:32:21.937Z,8.48
2022-08-19T00:34:50.415Z,7.93
2022-08-19T00:37:19.268Z,9.93
2022-08-19T00:39:49.050Z,7.70
2022-08-19T00:42:17.658Z,8.43
2022-08-19T00:44:46.414Z,7.97
2022-08-19T00:47:15.367Z,7.80
2022-08-19T00:49:51.673Z,7.07
2022-08-19T00:52:25.417Z,7.80
2022-08-19T00:54:55.289Z,7.38
2022-08-19T00:57:31.300Z,8.43
2022-08-19T01:00:03.292Z,7.97
2022-08-19T01:02:34.497Z,7.97
2022-08-19T01:05:08.417Z,9.23
2022-08-19T01:07:38.266Z,7.75
2022-08-19T01:10:11.678Z,7.85
2022-08-19T01:12:41.597Z,8.95
2022-08-19T01:15:13.705Z,8.07
2022-08-19T01:17:43.748Z,7.68
2022-08-19T01:20:15.966Z,7.57
2022-08-19T01:22:49.823Z,8.02
2022-08-19T01:25:26.211Z,9.18
2022-08-19T01:27:55.234Z,8.77
2022-08-19T01:30:32.231Z,9.05
2022-08-19T01:33:01.481Z,8.05
2022-08-19T01:35:32.457Z,8.55
2022-08-19T01:38:08.683Z,8.02
2022-08-19T01:40:43.134Z,7.80
2022-08-19T01:43:11.901Z,8.45
2022-08-19T01:45:41.139Z,7.55
2022-08-19T01:48:11.602Z,8.98
2022-08-19T01:50:41.118Z,7.75
2022-08-19T01:53:14.100Z,9.32
2022-08-19T01:55:45.287Z,8.63
2022-08-19T01:58:16.947Z,9.65
2022-08-19T02:00:46.167Z,8.65
2022-08-19T02:03:14.959Z,9.05
2022-08-19T02:05:45.133Z,9.77
2022-08-19T02:08:14.957Z,9.05
2022-08-19T02:10:45.299Z,9.27
2022-08-19T02:13:15.425Z,8.95
2022-08-19T02:15:44.183Z,9.48
2022-08-19T02:18:12.502Z,8.75
2022-08-19T02:20:43.820Z,10.15
2022-08-19T02:23:16.154Z,8.90
2022-08-19T02:25:45.296Z,9.43
2022-08-19T02:28:18.324Z,10.02
2022-08-19T02:30:50.296Z,8.40
2022-08-19T02:33:19.397Z,8.60
2022-08-19T02:35:48.817Z,8.52
2022-08-19T02:38:26.458Z,8.38
2022-08-19T02:40:57.110Z,8.18
2022-08-19T02:43:28.901Z,8.52
2022-08-19T02:45:57.597Z,9.65
2022-08-19T02:48:27.272Z,7.57
2022-08-19T02:50:57.056Z,8.05
2022-08-19T02:53:29.653Z,8.27
2022-08-19T02:55:58.002Z,7.00
2022-08-19T02:58:27.766Z,7.70
2022-08-19T03:00:58.135Z,8.73
2022-08-19T03:03:26.836Z,8.98
2022-08-19T03:06:07.109Z,8.18
2022-08-19T03:08:37.853Z,8.35
2022-08-19T03:11:06.790Z,8.13
2022-08-19T03:13:35.119Z,8.38
2022-08-19T03:16:07.876Z,8.50
2022-08-19T03:18:36.307Z,9.82
2022-08-19T03:21:05.728Z,8.73
2022-08-19T03:23:34.057Z,8.45
2022-08-19T03:26:16.699Z,8.75
2022-08-19T03:28:58.391Z,8.02
2022-08-19T03:31:44.283Z,8.48
2022-08-19T03:34:20.707Z,8.18
2022-08-19T03:36:49.819Z,8.80
2022-08-19T03:39:18.869Z,8.45
2022-08-19T03:42:32.401Z,8.70
2022-08-19T03:44:43.242Z,9.10
2022-08-19T03:47:16.614Z,8.43
2022-08-19T03:49:45.808Z,9.07
2022-08-19T03:52:14.371Z,8.27
2022-08-19T03:54:42.942Z,7.80
2022-08-19T03:57:12.613Z,8.65
2022-08-19T03:59:41.316Z,8.80
2022-08-19T04:02:13.751Z,8.98
2022-08-19T04:04:46.031Z,8.23
2022-08-19T04:07:17.296Z,8.55
2022-08-19T04:09:45.895Z,8.68
2022-08-19T04:12:15.890Z,8.77
2022-08-19T04:14:44.132Z,10.55
2022-08-19T04:17:13.961Z,9.05
2022-08-19T04:19:43.868Z,9.75
2022-08-19T04:22:12.916Z,8.65
2022-08-19T04:24:41.386Z,9.18
2022-08-19T04:27:09.769Z,9.65
2022-08-19T04:29:40.413Z,10.15
2022-08-19T04:32:09.934Z,9.20
2022-08-19T04:35:02.002Z,9.65
2022-08-19T04:37:35.538Z,10.27
2022-08-19T04:40:26.310Z,9.23
2022-08-19T04:42:55.360Z,10.48
2022-08-19T04:45:25.248Z,9.00
2022-08-19T04:48:26.268Z,9.32
2022-08-19T04:50:47.825Z,10.27
2022-08-19T04:53:16.270Z,9.00
2022-08-19T04:55:45.046Z,8.80
2022-08-19T04:58:13.290Z,8.00
2022-08-19T05:00:43.137Z,7.82
2022-08-19T05:03:11.912Z,8.38
2022-08-19T05:05:44.702Z,8.95
2022-08-19T05:08:31.354Z,8.25
2022-08-19T05:11:00.652Z,7.80
2022-08-19T05:13:29.241Z,7.22
2022-08-19T05:16:01.300Z,7.72
2022-08-19T05:18:47.369Z,8.20
2022-08-19T05:21:37.058Z,7.50
2022-08-19T05:24:09.856Z,7.40
2022-08-19T05:26:38.934Z,8.20
2022-08-19T05:29:08.333Z,6.95
2022-08-19T05:31:42.012Z,7.47
2022-08-19T05:34:20.495Z,8.02
2022-08-19T05:36:49.984Z,7.10
2022-08-19T05:39:21.867Z,9.98
2022-08-19T05:41:55.145Z,6.93
2022-08-19T05:44:23.963Z,7.03
2022-08-19T05:46:54.877Z,8.18
2022-08-19T05:49:26.570Z,7.32
2022-08-19T05:51:57.399Z,8.30
2022-08-19T05:54:27.023Z,8.45
2022-08-19T05:56:56.571Z,8.85
2022-08-19T05:59:25.387Z,8.43
2022-08-19T06:01:57.952Z,9.13
2022-08-19T06:04:26.508Z,11.25
2022-08-19T06:06:57.259Z,9.68
2022-08-19T06:09:25.835Z,9.77
2022-08-19T06:12:00.615Z,9.43
2022-08-19T06:14:35.515Z,9.82
2022-08-19T06:17:10.491Z,8.10
2022-08-19T06:19:40.791Z,9.27
2022-08-19T06:22:11.312Z,8.85
2022-08-19T06:24:39.701Z,8.52
2022-08-19T06:27:08.199Z,9.45
2022-08-19T06:29:37.016Z,9.35
2022-08-19T06:32:06.679Z,9.77
2022-08-19T06:34:37.140Z,9.10
2022-08-19T06:37:06.693Z,11.45
2022-08-19T06:39:37.571Z,9.30
2022-08-19T06:42:11.100Z,9.30
2022-08-19T06:44:43.177Z,11.23
2022-08-19T06:47:24.037Z,10.18
2022-08-19T06:50:03.742Z,9.95
2022-08-19T06:52:34.046Z,10.18
2022-08-19T06:55:06.251Z,9.80
2022-08-19T06:57:35.390Z,9.20
2022-08-19T07:00:06.435Z,10.23
2022-08-19T07:02:38.663Z,9.63
2022-08-19T07:05:10.025Z,9.40
2022-08-19T07:07:39.305Z,8.77
2022-08-19T07:10:11.844Z,8.85
2022-08-19T07:12:41.817Z,9.90
2022-08-19T07:15:12.042Z,9.15
2022-08-19T07:17:42.214Z,9.05
2022-08-19T07:20:13.806Z,9.10
2022-08-19T07:22:42.583Z,7.93
2022-08-19T07:25:11.968Z,9.07
2022-08-19T07:27:40.303Z,8.93
2022-08-19T07:30:12.966Z,9.48
2022-08-19T07:32:41.701Z,9.15
2022-08-19T07:35:12.263Z,8.75
2022-08-19T07:37:45.116Z,8.75
2022-08-19T07:40:14.453Z,8.65
2022-08-19T07:42:44.215Z,8.48
2022-08-19T07:45:12.932Z,8.45
2022-08-19T07:47:47.521Z,8.13
2022-08-19T07:50:22.930Z,9.38
2022-08-19T07:52:52.679Z,8.98
2022-08-19T07:55:41.892Z,8.35
2022-08-19T07:58:15.218Z,7.47
2022-08-19T08:00:44.307Z,7.95
2022-08-19T08:03:13.941Z,8.50
2022-08-19T08:06:01.701Z,7.25
2022-08-19T08:08:48.547Z,7.65
2022-08-19T08:11:19.979Z,7.93
2022-08-19T08:14:00.723Z,7.88
2022-08-19T08:16:32.183Z,7.82
2022-08-19T08:19:01.370Z,7.10
2022-08-19T08:21:31.692Z,7.78
2022-08-19T08:26:29.242Z,7.75
2022-08-19T08:28:57.530Z,7.22
2022-08-19T08:31:26.228Z,7.60
2022-08-19T08:33:54.724Z,7.40
2022-08-19T08:36:23.261Z,7.40
2022-08-19T08:41:35.583Z,8.35
2022-08-19T08:44:06.996Z,6.80
2022-08-19T08:46:41.942Z,8.07
2022-08-19T08:49:25.522Z,7.70
2022-08-19T08:52:01.945Z,7.40
2022-08-19T08:54:39.509Z,7.78
2022-08-19T08:57:15.899Z,7.50
2022-08-19T08:59:51.715Z,7.40
2022-08-19T09:02:20.650Z,6.82
2022-08-19T09:04:49.455Z,6.93
2022-08-19T09:07:38.047Z,7.30
2022-08-19T09:10:18.347Z,7.07
2022-08-19T09:13:00.513Z,7.28
2022-08-19T09:15:36.734Z,7.63
2022-08-19T09:18:07.364Z,7.53
2022-08-19T09:20:35.916Z,7.03
2022-08-19T09:23:10.627Z,7.15
2022-08-19T09:25:41.128Z,6.90
2022-08-19T09:28:20.571Z,6.53
2022-08-19T09:30:53.214Z,6.82
2022-08-19T09:33:21.667Z,6.78
2022-08-19T09:35:53.687Z,6.53
2022-08-19T09:38:22.545Z,6.68
2022-08-19T09:40:52.337Z,6.50
2022-08-19T09:43:33.222Z,6.75
2022-08-19T09:46:02.553Z,6.47
2022-08-19T09:48:30.963Z,6.63
2022-08-19T09:51:06.289Z,7.00
2022-08-19T09:53:34.613Z,6.40
2022-08-19T09:56:08.465Z,6.80
2022-08-19T09:58:38.653Z,6.13
2022-08-19T10:01:08.915Z,6.55
2022-08-19T10:03:38.734Z,6.43
2022-08-19T10:06:14.958Z,6.28
2022-08-19T10:08:50.059Z,5.40
2022-08-19T10:11:27.399Z,6.90
2022-08-19T10:14:06.660Z,6.40
2022-08-19T10:16:37.154Z,6.55
2022-08-19T10:19:08.044Z,5.70
2022-08-19T10:21:36.457Z,6.35
2022-08-19T10:24:07.460Z,5.75
2022-08-19T10:26:46.011Z,6.07
2022-08-19T10:29:32.516Z,6.03
2022-08-19T10:32:02.906Z,5.97
2022-08-19T10:34:32.839Z,5.47
2022-08-19T10:37:02.202Z,6.15
2022-08-19T10:39:32.884Z,6.30
2022-08-19T10:42:14.165Z,6.43
2022-08-19T10:44:43.271Z,6.45
2022-08-19T10:47:17.481Z,6.60
2022-08-19T10:50:11.961Z,8.98
2022-08-19T10:52:50.028Z,6.32
2022-08-19T10:55:39.848Z,6.50
2022-08-19T10:58:16.197Z,6.07
2022-08-19T11:00:45.733Z,6.28
2022-08-19T11:03:14.498Z,6.50
2022-08-19T11:05:43.209Z,6.40
2022-08-19T11:08:22.550Z,5.95
2022-08-19T11:11:00.167Z,6.43
2022-08-19T11:13:30.265Z,5.97
2022-08-19T11:16:05.277Z,6.05
2022-08-19T11:18:38.256Z,6.00
2022-08-19T11:21:13.798Z,6.75
2022-08-19T11:23:42.495Z,6.40
2022-08-19T11:26:11.655Z,6.47
2022-08-19T11:28:42.496Z,6.05
2022-08-19T11:31:14.919Z,6.30
2022-08-19T11:33:47.821Z,6.45
2022-08-19T11:36:17.575Z,5.80
2022-08-19T11:38:49.362Z,6.57
2022-08-19T11:41:21.756Z,6.53
2022-08-19T11:43:53.898Z,5.97
2022-08-19T11:46:24.742Z,5.93
2022-08-19T11:48:53.479Z,6.20
2022-08-19T11:51:26.523Z,5.47
2022-08-19T11:53:56.284Z,5.75
2022-08-19T11:56:26.544Z,5.82
2022-08-19T11:58:57.952Z,5.53
2022-08-19T12:01:29.296Z,6.05
2022-08-19T12:03:59.594Z,6.18
2022-08-19T12:06:32.736Z,5.78
2022-08-19T12:09:08.382Z,5.63
2022-08-19T12:11:37.871Z,7.88
2022-08-19T12:14:09.168Z,6.18
2022-08-19T12:16:51.438Z,5.43
2022-08-19T12:19:22.663Z,5.25
2022-08-19T12:21:52.526Z,5.57
2022-08-19T12:24:24.418Z,5.47
2022-08-19T12:26:54.614Z,10.73
2022-08-19T12:29:31.091Z,9.27
2022-08-19T12:32:03.813Z,5.60
2022-08-19T12:34:33.924Z,7.15
2022-08-19T12:37:06.780Z,5.68
2022-08-19T12:39:39.619Z,229.45
2022-08-19T12:42:10.060Z,552.88
2022-08-19T12:44:42.731Z,351.50
2022-08-19T12:47:14.584Z,340.88
2022-08-19T12:49:54.569Z,322.63
2022-08-19T12:52:28.808Z,400.20
2022-08-19T12:54:59.221Z,409.52
2022-08-19T12:57:32.631Z,637.72
2022-08-19T13:00:12.480Z,1117.53
2022-08-19T13:02:42.422Z,609.25
2022-08-19T13:05:14.978Z,502.60
2022-08-19T13:07:45.016Z,483.60
2022-08-19T13:10:18.657Z,363.40
2022-08-19T13:12:49.351Z,301.20
2022-08-19T13:15:24.155Z,300.55
2022-08-19T13:17:57.107Z,144.68
2022-08-19T13:20:26.429Z,130.95
2022-08-19T13:22:55.708Z,120.90
2022-08-19T13:25:24.098Z,93.95
2022-08-19T13:27:53.443Z,86.47
2022-08-19T13:30:41.349Z,195.07
2022-08-19T13:33:16.217Z,70.40
2022-08-19T13:35:49.847Z,58.30
2022-08-19T13:38:21.435Z,38.67
2022-08-19T13:40:54.454Z,31.45
2022-08-19T13:43:25.332Z,22.17
2022-08-19T13:45:57.701Z,13.35
2022-08-19T13:48:27.920Z,16.85
2022-08-19T13:50:57.676Z,14.10
2022-08-19T13:53:25.985Z,14.77
2022-08-19T13:55:54.963Z,12.52
2022-08-19T13:58:23.938Z,13.32
2022-08-19T14:00:52.256Z,11.57
2022-08-19T14:03:22.547Z,13.43
2022-08-19T14:05:50.941Z,12.38
2022-08-19T14:08:20.126Z,11.07
2022-08-19T14:10:51.693Z,10.55
2022-08-19T14:13:24.419Z,10.48
2022-08-19T14:15:53.038Z,10.55
2022-08-19T14:18:22.819Z,10.35
2022-08-19T14:20:56.405Z,10.68
2022-08-19T14:23:24.624Z,10.45
2022-08-19T14:25:52.885Z,10.60
2022-08-19T14:28:21.477Z,10.52
2022-08-19T14:30:56.822Z,10.90
2022-08-19T14:33:28.415Z,10.50
2022-08-19T14:35:59.504Z,9.98
2022-08-19T14:38:32.423Z,10.48
2022-08-19T14:41:12.253Z,10.55
2022-08-19T14:43:41.561Z,9.65
2022-08-19T14:46:11.294Z,9.07
2022-08-19T14:48:41.433Z,9.60
2022-08-19T14:51:10.798Z,9.65
2022-08-19T14:53:39.656Z,9.38
2022-08-19T14:56:12.677Z,9.13
2022-08-19T14:58:42.637Z,8.52
2022-08-19T15:01:13.197Z,9.07
2022-08-19T15:03:43.710Z,8.32
2022-08-19T15:06:12.612Z,8.65
2022-08-19T15:08:44.067Z,10.63
2022-08-19T15:11:21.943Z,8.80
2022-08-19T15:13:51.324Z,8.55
2022-08-19T15:16:22.753Z,9.15
2022-08-19T15:18:57.101Z,8.57
2022-08-19T15:21:27.703Z,8.23
2022-08-19T15:23:57.994Z,7.70
2022-08-19T15:26:27.396Z,7.82
2022-08-19T15:28:55.996Z,8.20
2022-08-19T15:31:25.253Z,8.18
2022-08-19T15:33:59.284Z,7.60
2022-08-19T15:36:28.458Z,7.18
2022-08-19T15:38:57.243Z,7.30
2022-08-19T15:41:29.415Z,8.05
2022-08-19T15:44:01.070Z,7.68
2022-08-19T15:46:32.415Z,7.90
2022-08-19T15:49:03.456Z,7.15
2022-08-19T15:51:36.091Z,7.72
2022-08-19T15:54:05.821Z,6.95
2022-08-19T15:57:06.892Z,7.20
2022-08-19T15:59:54.319Z,7.18
2022-08-19T16:02:43.142Z,11.10
2022-08-19T16:05:39.752Z,11.75
2022-08-19T16:08:09.096Z,9.68
2022-08-19T16:10:38.419Z,15.57
2022-08-19T16:13:07.510Z,13.30
2022-08-19T16:15:35.826Z,12.45
2022-08-19T16:18:04.829Z,11.82
2022-08-19T16:20:35.609Z,15.05
2022-08-19T16:23:05.587Z,13.75
2022-08-19T16:25:34.352Z,13.07
2022-08-19T16:28:07.135Z,13.63
2022-08-19T16:30:39.082Z,12.20
2022-08-19T16:33:08.538Z,13.98
2022-08-19T16:35:38.883Z,15.05
2022-08-19T16:38:07.979Z,15.65
2022-08-19T16:40:38.455Z,12.95
2022-08-19T16:43:09.977Z,12.32
2022-08-19T16:45:38.396Z,16.08
2022-08-19T16:48:12.369Z,16.92
2022-08-19T16:50:49.934Z,15.30
2022-08-19T16:53:21.929Z,15.05
2022-08-19T16:55:53.996Z,12.35
2022-08-19T16:58:29.179Z,12.43
2022-08-19T17:01:03.797Z,12.65
2022-08-19T17:03:36.391Z,11.35
2022-08-19T17:06:15.900Z,15.10
2022-08-19T17:08:50.395Z,10.80
2022-08-19T17:11:21.133Z,13.45
2022-08-19T17:13:50.780Z,14.57
2022-08-19T17:16:24.756Z,15.07
2022-08-19T17:18:53.683Z,15.07
2022-08-19T17:21:28.615Z,14.43
2022-08-19T17:23:58.017Z,12.63
2022-08-19T17:26:27.686Z,12.75
2022-08-19T17:28:59.512Z,13.32
2022-08-19T17:31:31.588Z,12.77
2022-08-19T17:34:03.565Z,14.55
2022-08-19T17:36:35.159Z,11.48
2022-08-19T17:39:07.824Z,12.32
2022-08-19T17:41:37.004Z,9.70
2022-08-19T17:44:06.744Z,10.18
2022-08-19T17:46:37.481Z,9.55
2022-08-19T17:49:06.933Z,11.00
2022-08-19T17:51:47.190Z,9.73
2022-08-19T17:54:19.942Z,9.65
2022-08-19T17:56:49.058Z,10.10
2022-08-19T17:59:22.121Z,8.88
2022-08-19T18:01:54.748Z,8.43
2022-08-19T18:04:25.469Z,8.30
2022-08-19T18:06:56.133Z,8.10
2022-08-19T18:09:27.430Z,8.23
2022-08-19T18:11:58.784Z,9.20
2022-08-19T18:14:34.093Z,8.25
2022-08-19T18:17:10.008Z,9.25
2022-08-19T18:19:42.944Z,7.72
2022-08-19T18:22:24.257Z,8.82
2022-08-19T18:24:53.482Z,8.52
2022-08-19T18:27:22.495Z,8.65
2022-08-19T18:29:51.171Z,7.95
2022-08-19T18:32:23.765Z,9.10
2022-08-19T18:34:54.218Z,8.70
2022-08-19T18:37:26.768Z,8.38
2022-08-19T18:40:13.141Z,8.05
2022-08-19T18:43:02.368Z,8.48
2022-08-19T18:45:49.473Z,7.97
2022-08-19T18:48:35.493Z,9.00
2022-08-19T18:51:04.656Z,8.40
2022-08-19T18:53:39.614Z,8.13
2022-08-19T18:56:14.703Z,9.73
2022-08-19T18:58:44.228Z,8.70
2022-08-19T19:01:19.787Z,8.93
2022-08-19T19:04:00.296Z,9.27
2022-08-19T19:06:40.663Z,8.10
2022-08-19T19:09:14.003Z,9.40
2022-08-19T19:11:48.465Z,9.13
2022-08-19T19:14:46.046Z,8.82
2022-08-19T19:17:15.530Z,9.20
2022-08-19T19:19:45.852Z,9.73
2022-08-19T19:22:17.961Z,9.00
2022-08-19T19:24:51.187Z,11.02
2022-08-19T19:27:21.286Z,10.00
2022-08-19T19:29:52.198Z,10.15
2022-08-19T19:32:27.542Z,10.30
2022-08-19T19:34:56.313Z,10.10
2022-08-19T19:37:24.516Z,10.45
2022-08-19T19:39:54.337Z,10.68
2022-08-19T19:42:24.738Z,10.63
2022-08-19T19:44:55.713Z,10.85
2022-08-19T19:47:28.441Z,12.65
2022-08-19T19:50:14.356Z,11.20
2022-08-19T19:52:46.601Z,11.85
2022-08-19T19:55:18.797Z,11.50
2022-08-19T19:57:47.662Z,12.10
2022-08-19T20:00:19.227Z,13.93
2022-08-19T20:02:50.342Z,11.65
2022-08-19T20:05:21.228Z,11.77
2022-08-19T20:08:09.463Z,11.65
2022-08-19T20:10:40.241Z,10.75
2022-08-19T20:13:09.479Z,10.82
2022-08-19T20:15:42.556Z,11.63
2022-08-19T20:18:13.459Z,12.95
2022-08-19T20:20:42.344Z,13.65
2022-08-19T20:23:11.188Z,11.90
2022-08-19T20:25:41.005Z,12.07
2022-08-19T20:28:12.327Z,12.88
2022-08-19T20:30:46.543Z,10.80
2022-08-19T20:33:15.260Z,13.35
2022-08-19T20:35:45.009Z,11.93
2022-08-19T20:38:13.632Z,11.95
2022-08-19T20:40:43.451Z,11.43
2022-08-19T20:43:14.267Z,11.50
2022-08-19T20:45:42.671Z,12.40
2022-08-19T20:48:13.584Z,12.85
2022-08-19T20:50:42.319Z,12.43
2022-08-19T20:53:13.427Z,11.95
2022-08-19T20:55:45.533Z,12.98
2022-08-19T20:58:14.554Z,12.73
2022-08-19T21:00:46.072Z,11.73
2022-08-19T21:03:19.072Z,11.88
2022-08-19T21:05:49.433Z,12.70
2022-08-19T21:08:20.108Z,11.88
2022-08-19T21:10:51.776Z,12.23
2022-08-19T21:13:22.377Z,13.35
2022-08-19T21:15:51.504Z,12.77
2022-08-19T21:18:25.643Z,11.50
2022-08-19T21:20:54.961Z,11.35
2022-08-19T21:23:26.688Z,12.55
2022-08-19T21:25:58.459Z,11.38
2022-08-19T21:28:34.543Z,10.43
2022-08-19T21:31:07.311Z,11.65
2022-08-19T21:33:35.963Z,11.00
2022-08-19T21:36:05.486Z,11.70
2022-08-19T21:38:34.501Z,12.77
2022-08-19T21:41:06.592Z,12.25
2022-08-19T21:43:37.644Z,10.45
2022-08-19T21:46:07.904Z,13.02
2022-08-19T21:48:37.303Z,14.02
2022-08-19T21:51:06.097Z,13.88
2022-08-19T21:53:34.889Z,16.45
2022-08-19T21:56:06.385Z,12.55
2022-08-19T21:58:36.429Z,13.02
2022-08-19T22:01:08.256Z,15.75
2022-08-19T22:03:39.086Z,12.43
2022-08-19T22:06:08.368Z,11.57
2022-08-19T22:08:37.020Z,10.65
2022-08-19T22:11:06.715Z,12.20
2022-08-19T22:13:40.128Z,12.27
2022-08-19T22:16:09.954Z,12.75
2022-08-19T22:18:38.750Z,11.55
2022-08-19T22:21:11.727Z,12.45
2022-08-19T22:23:41.781Z,17.23
2022-08-19T22:26:12.316Z,11.65
2022-08-19T22:28:42.771Z,10.82
2022-08-19T22:31:12.070Z,15.27
2022-08-19T22:33:41.564Z,13.00
2022-08-19T22:36:10.236Z,15.45
2022-08-19T22:38:38.876Z,14.20
2022-08-19T22:41:08.084Z,12.52
2022-08-19T22:43:38.341Z,14.02
2022-08-19T22:46:17.239Z,15.13
2022-08-19T22:48:47.620Z,14.98
2022-08-19T22:51:33.731Z,13.68
2022-08-19T22:54:03.113Z,17.58
2022-08-19T22:56:31.656Z,18.60
2022-08-19T22:59:03.184Z,14.30
2022-08-19T23:01:32.110Z,17.48
2022-08-19T23:04:04.100Z,13.57
2022-08-19T23:06:35.153Z,15.02
2022-08-19T23:09:08.275Z,13.35
2022-08-19T23:11:41.948Z,15.57
2022-08-19T23:14:13.656Z,14.80
2022-08-19T23:16:42.897Z,13.18
2022-08-19T23:19:12.868Z,14.65
2022-08-19T23:21:42.233Z,12.68
2022-08-19T23:24:12.065Z,12.40
2022-08-19T23:27:02.260Z,12.32
2022-08-19T23:29:49.342Z,12.48
2022-08-19T23:32:18.513Z,13.18
2022-08-19T23:34:47.199Z,10.52
2022-08-19T23:37:16.074Z,11.95
2022-08-19T23:39:45.362Z,14.80
2022-08-19T23:42:14.314Z,10.55
2022-08-19T23:44:51.331Z,10.35
2022-08-19T23:47:21.889Z,11.32
2022-08-19T23:49:50.876Z,11.88
2022-08-19T23:52:19.584Z,10.23
2022-08-19T23:54:47.942Z,12.00
2022-08-19T23:57:16.462Z,11.20
2022-08-19T23:59:46.282Z,10.80
